sensor_id;sensor_type;location;lat;lon;timestamp;P1;durP1;ratioP1;P2;durP2;ratioP2
48871;SDS011;36154;51.674;7.824;2022-08-21T00:01:14;4.95;;;2.17;;
48871;SDS011;36154;51.674;7.824;2022-08-21T00:03:43;5.90;;;2.35;;
48871;SDS011;36154;51.674;7.824;2022-08-21T00:06:08;6.30;;;2.50;;
48871;SDS011;36154;51.674;7.824;2022-08-21T00:08:34;5.53;;;2.60;;
48871;SDS011;36154;51.674;7.824;2022-08-21T00:10:59;5.97;;;3.03;;
48871;SDS011;36154;51.674;7.824;2022-08-21T00:13:25;6.75;;;2.42;;
48871;SDS011;36154;51.674;7.824;2022-08-21T00:15:50;7.18;;;2.60;;
48871;SDS011;36154;51.674;7.824;2022-08-21T00:18:15;5.20;;;2.05;;
48871;SDS011;36154;51.674;7.824;2022-08-21T00:20:42;7.50;;;2.80;;
48871;SDS011;36154;51.674;7.824;2022-08-21T00:23:09;4.90;;;2.53;;
48871;SDS011;36154;51.674;7.824;2022-08-21T00:25:35;6.30;;;2.28;;
48871;SDS011;36154;51.674;7.824;2022-08-21T00:28:00;6.63;;;2.10;;
48871;SDS011;36154;51.674;7.824;2022-08-21T00:30:27;3.83;;;2.13;;
48871;SDS011;36154;51.674;7.824;2022-08-21T00:32:53;5.22;;;1.90;;
48871;SDS011;36154;51.674;7.824;2022-08-21T00:35:22;4.00;;;1.92;;
48871;SDS011;36154;51.674;7.824;2022-08-21T00:37:52;8.90;;;2.50;;
48871;SDS011;36154;51.674;7.824;2022-08-21T00:40:20;6.85;;;2.60;;
48871;SDS011;36154;51.674;7.824;2022-08-21T00:42:50;6.20;;;2.33;;
48871;SDS011;36154;51.674;7.824;2022-08-21T00:45:15;4.10;;;1.77;;
48871;SDS011;36154;51.674;7.824;2022-08-21T00:47:41;4.43;;;2.17;;
48871;SDS011;36154;51.674;7.824;2022-08-21T00:50:07;3.35;;;2.05;;
48871;SDS011;36154;51.674;7.824;2022-08-21T00:52:34;5.30;;;1.83;;
48871;SDS011;36154;51.674;7.824;2022-08-21T00:55:02;6.15;;;2.33;;
48871;SDS011;36154;51.674;7.824;2022-08-21T00:57:34;7.18;;;2.45;;
48871;SDS011;36154;51.674;7.824;2022-08-21T01:00:05;7.18;;;2.30;;
48871;SDS011;36154;51.674;7.824;2022-08-21T01:02:33;5.82;;;2.30;;
48871;SDS011;36154;51.674;7.824;2022-08-21T01:04:58;9.45;;;2.35;;
48871;SDS011;36154;51.674;7.824;2022-08-21T01:07:24;10.68;;;2.83;;
48871;SDS011;36154;51.674;7.824;2022-08-21T01:09:50;9.25;;;2.30;;
48871;SDS011;36154;51.674;7.824;2022-08-21T01:12:16;4.88;;;2.20;;
48871;SDS011;36154;51.674;7.824;2022-08-21T01:14:42;6.30;;;2.60;;
48871;SDS011;36154;51.674;7.824;2022-08-21T01:17:09;3.85;;;2.35;;
48871;SDS011;36154;51.674;7.824;2022-08-21T01:19:37;5.45;;;3.00;;
48871;SDS011;36154;51.674;7.824;2022-08-21T01:22:03;5.13;;;2.47;;
48871;SDS011;36154;51.674;7.824;2022-08-21T01:24:28;5.78;;;2.38;;
48871;SDS011;36154;51.674;7.824;2022-08-21T01:26:56;6.97;;;2.63;;
48871;SDS011;36154;51.674;7.824;2022-08-21T01:29:26;4.85;;;2.10;;
48871;SDS011;36154;51.674;7.824;2022-08-21T01:32:05;8.90;;;3.10;;
48871;SDS011;36154;51.674;7.824;2022-08-21T01:34:34;5.50;;;2.75;;
48871;SDS011;36154;51.674;7.824;2022-08-21T01:37:02;5.55;;;2.92;;
48871;SDS011;36154;51.674;7.824;2022-08-21T01:39:28;8.80;;;2.85;;
48871;SDS011;36154;51.674;7.824;2022-08-21T01:41:54;6.32;;;2.80;;
48871;SDS011;36154;51.674;7.824;2022-08-21T01:44:23;5.63;;;2.97;;
48871;SDS011;36154;51.674;7.824;2022-08-21T01:46:49;4.75;;;2.50;;
48871;SDS011;36154;51.674;7.824;2022-08-21T01:49:15;6.95;;;3.15;;
48871;SDS011;36154;51.674;7.824;2022-08-21T01:51:40;5.68;;;2.50;;
48871;SDS011;36154;51.674;7.824;2022-08-21T01:54:06;4.07;;;2.50;;
48871;SDS011;36154;51.674;7.824;2022-08-21T01:56:35;4.85;;;2.53;;
48871;SDS011;36154;51.674;7.824;2022-08-21T01:59:05;8.63;;;3.10;;
48871;SDS011;36154;51.674;7.824;2022-08-21T02:01:30;5.80;;;2.88;;
48871;SDS011;36154;51.674;7.824;2022-08-21T02:03:56;11.43;;;3.53;;
48871;SDS011;36154;51.674;7.824;2022-08-21T02:06:21;5.53;;;3.05;;
48871;SDS011;36154;51.674;7.824;2022-08-21T02:08:46;6.80;;;2.47;;
48871;SDS011;36154;51.674;7.824;2022-08-21T02:11:12;8.40;;;3.13;;
48871;SDS011;36154;51.674;7.824;2022-08-21T02:13:37;6.75;;;2.75;;
48871;SDS011;36154;51.674;7.824;2022-08-21T02:16:03;7.65;;;3.08;;
48871;SDS011;36154;51.674;7.824;2022-08-21T02:18:29;7.72;;;2.72;;
48871;SDS011;36154;51.674;7.824;2022-08-21T02:20:54;6.15;;;2.78;;
48871;SDS011;36154;51.674;7.824;2022-08-21T02:23:20;8.10;;;3.10;;
48871;SDS011;36154;51.674;7.824;2022-08-21T02:25:45;5.72;;;2.90;;
48871;SDS011;36154;51.674;7.824;2022-08-21T02:28:11;8.85;;;3.30;;
48871;SDS011;36154;51.674;7.824;2022-08-21T02:30:40;7.80;;;2.67;;
48871;SDS011;36154;51.674;7.824;2022-08-21T02:33:09;6.50;;;3.25;;
48871;SDS011;36154;51.674;7.824;2022-08-21T02:35:37;6.53;;;2.88;;
48871;SDS011;36154;51.674;7.824;2022-08-21T02:38:08;7.93;;;3.20;;
48871;SDS011;36154;51.674;7.824;2022-08-21T02:40:36;6.72;;;3.20;;
48871;SDS011;36154;51.674;7.824;2022-08-21T02:43:04;7.70;;;3.20;;
48871;SDS011;36154;51.674;7.824;2022-08-21T02:45:31;7.22;;;3.53;;
48871;SDS011;36154;51.674;7.824;2022-08-21T02:47:58;9.43;;;3.40;;
48871;SDS011;36154;51.674;7.824;2022-08-21T02:50:27;6.65;;;3.17;;
48871;SDS011;36154;51.674;7.824;2022-08-21T02:52:54;9.82;;;4.00;;
48871;SDS011;36154;51.674;7.824;2022-08-21T02:55:21;8.75;;;3.75;;
48871;SDS011;36154;51.674;7.824;2022-08-21T02:57:47;6.05;;;3.00;;
48871;SDS011;36154;51.674;7.824;2022-08-21T03:00:14;5.00;;;3.25;;
48871;SDS011;36154;51.674;7.824;2022-08-21T03:02:40;7.10;;;3.65;;
48871;SDS011;36154;51.674;7.824;2022-08-21T03:05:06;7.63;;;3.67;;
48871;SDS011;36154;51.674;7.824;2022-08-21T03:07:33;5.18;;;3.25;;
48871;SDS011;36154;51.674;7.824;2022-08-21T03:09:59;8.80;;;3.63;;
48871;SDS011;36154;51.674;7.824;2022-08-21T03:12:24;6.18;;;3.28;;
48871;SDS011;36154;51.674;7.824;2022-08-21T03:14:50;9.48;;;3.80;;
48871;SDS011;36154;51.674;7.824;2022-08-21T03:17:15;8.50;;;4.35;;
48871;SDS011;36154;51.674;7.824;2022-08-21T03:19:40;9.15;;;4.05;;
48871;SDS011;36154;51.674;7.824;2022-08-21T03:22:06;9.10;;;4.28;;
48871;SDS011;36154;51.674;7.824;2022-08-21T03:24:31;7.47;;;3.97;;
48871;SDS011;36154;51.674;7.824;2022-08-21T03:26:56;9.57;;;4.38;;
48871;SDS011;36154;51.674;7.824;2022-08-21T03:29:22;10.10;;;4.38;;
48871;SDS011;36154;51.674;7.824;2022-08-21T03:31:47;8.40;;;4.20;;
48871;SDS011;36154;51.674;7.824;2022-08-21T03:34:13;10.23;;;3.95;;
48871;SDS011;36154;51.674;7.824;2022-08-21T03:36:38;9.40;;;4.85;;
48871;SDS011;36154;51.674;7.824;2022-08-21T03:39:04;8.18;;;4.50;;
48871;SDS011;36154;51.674;7.824;2022-08-21T03:41:29;10.25;;;4.55;;
48871;SDS011;36154;51.674;7.824;2022-08-21T03:43:54;10.75;;;4.50;;
48871;SDS011;36154;51.674;7.824;2022-08-21T03:46:20;8.05;;;4.40;;
48871;SDS011;36154;51.674;7.824;2022-08-21T03:48:45;10.55;;;4.53;;
48871;SDS011;36154;51.674;7.824;2022-08-21T03:51:10;9.60;;;5.05;;
48871;SDS011;36154;51.674;7.824;2022-08-21T03:53:36;9.15;;;5.05;;
48871;SDS011;36154;51.674;7.824;2022-08-21T03:56:02;9.50;;;4.93;;
48871;SDS011;36154;51.674;7.824;2022-08-21T03:58:28;10.35;;;4.40;;
48871;SDS011;36154;51.674;7.824;2022-08-21T04:00:54;11.30;;;5.10;;
48871;SDS011;36154;51.674;7.824;2022-08-21T04:03:21;11.18;;;5.22;;
48871;SDS011;36154;51.674;7.824;2022-08-21T04:05:47;9.93;;;5.15;;
48871;SDS011;36154;51.674;7.824;2022-08-21T04:08:12;9.32;;;4.97;;
48871;SDS011;36154;51.674;7.824;2022-08-21T04:10:39;8.85;;;5.30;;
48871;SDS011;36154;51.674;7.824;2022-08-21T04:13:05;8.18;;;5.13;;
48871;SDS011;36154;51.674;7.824;2022-08-21T04:15:32;9.48;;;5.00;;
48871;SDS011;36154;51.674;7.824;2022-08-21T04:17:58;10.02;;;5.57;;
48871;SDS011;36154;51.674;7.824;2022-08-21T04:20:25;14.50;;;6.03;;
48871;SDS011;36154;51.674;7.824;2022-08-21T04:22:51;12.80;;;6.43;;
48871;SDS011;36154;51.674;7.824;2022-08-21T04:25:18;10.75;;;5.70;;
48871;SDS011;36154;51.674;7.824;2022-08-21T04:27:45;8.30;;;4.93;;
48871;SDS011;36154;51.674;7.824;2022-08-21T04:30:10;9.85;;;5.00;;
48871;SDS011;36154;51.674;7.824;2022-08-21T04:32:37;12.55;;;5.53;;
48871;SDS011;36154;51.674;7.824;2022-08-21T04:35:05;10.43;;;5.60;;
48871;SDS011;36154;51.674;7.824;2022-08-21T04:37:32;9.85;;;5.40;;
48871;SDS011;36154;51.674;7.824;2022-08-21T04:39:58;13.38;;;6.45;;
48871;SDS011;36154;51.674;7.824;2022-08-21T04:42:27;14.18;;;6.10;;
48871;SDS011;36154;51.674;7.824;2022-08-21T04:44:53;10.65;;;5.93;;
48871;SDS011;36154;51.674;7.824;2022-08-21T04:47:19;13.80;;;5.82;;
48871;SDS011;36154;51.674;7.824;2022-08-21T04:49:45;9.13;;;6.00;;
48871;SDS011;36154;51.674;7.824;2022-08-21T04:52:11;14.93;;;6.22;;
48871;SDS011;36154;51.674;7.824;2022-08-21T04:54:41;10.00;;;5.80;;
48871;SDS011;36154;51.674;7.824;2022-08-21T04:57:09;8.40;;;6.30;;
48871;SDS011;36154;51.674;7.824;2022-08-21T04:59:37;8.68;;;5.80;;
48871;SDS011;36154;51.674;7.824;2022-08-21T05:02:06;11.88;;;6.13;;
48871;SDS011;36154;51.674;7.824;2022-08-21T05:04:33;10.82;;;5.90;;
48871;SDS011;36154;51.674;7.824;2022-08-21T05:07:03;11.55;;;6.15;;
48871;SDS011;36154;51.674;7.824;2022-08-21T05:09:31;13.30;;;5.88;;
48871;SDS011;36154;51.674;7.824;2022-08-21T05:11:57;14.23;;;6.13;;
48871;SDS011;36154;51.674;7.824;2022-08-21T05:14:23;8.75;;;5.53;;
48871;SDS011;36154;51.674;7.824;2022-08-21T05:16:48;14.30;;;5.93;;
48871;SDS011;36154;51.674;7.824;2022-08-21T05:19:14;10.20;;;5.35;;
48871;SDS011;36154;51.674;7.824;2022-08-21T05:21:41;9.50;;;6.05;;
48871;SDS011;36154;51.674;7.824;2022-08-21T05:24:08;12.77;;;5.95;;
48871;SDS011;36154;51.674;7.824;2022-08-21T05:26:33;9.93;;;6.00;;
48871;SDS011;36154;51.674;7.824;2022-08-21T05:28:58;12.05;;;6.30;;
48871;SDS011;36154;51.674;7.824;2022-08-21T05:31:24;10.32;;;6.13;;
48871;SDS011;36154;51.674;7.824;2022-08-21T05:33:49;11.60;;;5.85;;
48871;SDS011;36154;51.674;7.824;2022-08-21T05:36:16;9.60;;;5.55;;
48871;SDS011;36154;51.674;7.824;2022-08-21T05:38:41;11.75;;;5.60;;
48871;SDS011;36154;51.674;7.824;2022-08-21T05:41:08;9.98;;;5.93;;
48871;SDS011;36154;51.674;7.824;2022-08-21T05:43:34;7.22;;;5.25;;
48871;SDS011;36154;51.674;7.824;2022-08-21T05:46:01;10.40;;;5.70;;
48871;SDS011;36154;51.674;7.824;2022-08-21T05:48:30;10.70;;;5.47;;
48871;SDS011;36154;51.674;7.824;2022-08-21T05:50:56;11.60;;;6.20;;
48871;SDS011;36154;51.674;7.824;2022-08-21T05:53:22;7.65;;;5.07;;
48871;SDS011;36154;51.674;7.824;2022-08-21T05:55:49;8.52;;;5.20;;
48871;SDS011;36154;51.674;7.824;2022-08-21T05:58:15;8.95;;;5.13;;
48871;SDS011;36154;51.674;7.824;2022-08-21T06:00:43;10.23;;;5.68;;
48871;SDS011;36154;51.674;7.824;2022-08-21T06:03:22;10.68;;;5.53;;
48871;SDS011;36154;51.674;7.824;2022-08-21T06:05:49;10.15;;;5.00;;
48871;SDS011;36154;51.674;7.824;2022-08-21T06:08:15;8.60;;;4.82;;
48871;SDS011;36154;51.674;7.824;2022-08-21T06:10:42;9.93;;;5.30;;
48871;SDS011;36154;51.674;7.824;2022-08-21T06:13:07;7.03;;;4.47;;
48871;SDS011;36154;51.674;7.824;2022-08-21T06:15:33;9.68;;;5.00;;
48871;SDS011;36154;51.674;7.824;2022-08-21T06:17:59;9.43;;;4.80;;
48871;SDS011;36154;51.674;7.824;2022-08-21T06:20:24;13.52;;;4.68;;
48871;SDS011;36154;51.674;7.824;2022-08-21T06:22:50;11.98;;;5.28;;
48871;SDS011;36154;51.674;7.824;2022-08-21T06:25:15;9.20;;;4.88;;
48871;SDS011;36154;51.674;7.824;2022-08-21T06:27:41;6.65;;;4.32;;
48871;SDS011;36154;51.674;7.824;2022-08-21T06:30:06;7.38;;;4.47;;
48871;SDS011;36154;51.674;7.824;2022-08-21T06:32:32;8.98;;;4.53;;
48871;SDS011;36154;51.674;7.824;2022-08-21T06:34:57;10.85;;;4.93;;
48871;SDS011;36154;51.674;7.824;2022-08-21T06:37:23;10.75;;;5.05;;
48871;SDS011;36154;51.674;7.824;2022-08-21T06:39:48;7.40;;;4.43;;
48871;SDS011;36154;51.674;7.824;2022-08-21T06:42:14;10.75;;;4.72;;
48871;SDS011;36154;51.674;7.824;2022-08-21T06:44:41;13.35;;;4.80;;
48871;SDS011;36154;51.674;7.824;2022-08-21T06:47:07;9.00;;;4.22;;
48871;SDS011;36154;51.674;7.824;2022-08-21T06:49:32;8.70;;;4.50;;
48871;SDS011;36154;51.674;7.824;2022-08-21T06:51:57;8.43;;;4.07;;
48871;SDS011;36154;51.674;7.824;2022-08-21T06:54:22;11.13;;;3.92;;
48871;SDS011;36154;51.674;7.824;2022-08-21T06:56:48;8.15;;;4.00;;
48871;SDS011;36154;51.674;7.824;2022-08-21T06:59:13;12.30;;;4.18;;
48871;SDS011;36154;51.674;7.824;2022-08-21T07:01:38;9.27;;;3.97;;
48871;SDS011;36154;51.674;7.824;2022-08-21T07:04:04;9.82;;;4.47;;
48871;SDS011;36154;51.674;7.824;2022-08-21T07:06:29;7.18;;;4.50;;
48871;SDS011;36154;51.674;7.824;2022-08-21T07:08:55;7.82;;;3.88;;
48871;SDS011;36154;51.674;7.824;2022-08-21T07:11:21;7.68;;;3.88;;
48871;SDS011;36154;51.674;7.824;2022-08-21T07:13:48;7.75;;;3.47;;
48871;SDS011;36154;51.674;7.824;2022-08-21T07:16:16;5.28;;;3.33;;
48871;SDS011;36154;51.674;7.824;2022-08-21T07:18:41;6.75;;;3.80;;
48871;SDS011;36154;51.674;7.824;2022-08-21T07:21:07;12.75;;;4.40;;
48871;SDS011;36154;51.674;7.824;2022-08-21T07:23:34;8.15;;;3.83;;
48871;SDS011;36154;51.674;7.824;2022-08-21T07:26:02;7.15;;;4.18;;
48871;SDS011;36154;51.674;7.824;2022-08-21T07:28:28;11.10;;;4.40;;
48871;SDS011;36154;51.674;7.824;2022-08-21T07:30:54;5.55;;;3.53;;
48871;SDS011;36154;51.674;7.824;2022-08-21T07:33:22;12.18;;;3.67;;
48871;SDS011;36154;51.674;7.824;2022-08-21T07:35:48;7.55;;;3.90;;
48871;SDS011;36154;51.674;7.824;2022-08-21T07:38:13;7.28;;;3.83;;
48871;SDS011;36154;51.674;7.824;2022-08-21T07:40:39;10.43;;;4.80;;
48871;SDS011;36154;51.674;7.824;2022-08-21T07:43:04;13.30;;;4.20;;
48871;SDS011;36154;51.674;7.824;2022-08-21T07:45:30;9.90;;;4.28;;
48871;SDS011;36154;51.674;7.824;2022-08-21T07:47:55;10.70;;;3.67;;
48871;SDS011;36154;51.674;7.824;2022-08-21T07:50:21;8.52;;;3.90;;
48871;SDS011;36154;51.674;7.824;2022-08-21T07:52:46;8.88;;;3.65;;
48871;SDS011;36154;51.674;7.824;2022-08-21T07:55:14;12.30;;;4.40;;
48871;SDS011;36154;51.674;7.824;2022-08-21T07:57:42;8.43;;;3.70;;
48871;SDS011;36154;51.674;7.824;2022-08-21T08:00:09;10.32;;;4.05;;
48871;SDS011;36154;51.674;7.824;2022-08-21T08:02:36;8.90;;;3.78;;
48871;SDS011;36154;51.674;7.824;2022-08-21T08:05:03;11.02;;;3.80;;
48871;SDS011;36154;51.674;7.824;2022-08-21T08:07:30;7.88;;;3.60;;
48871;SDS011;36154;51.674;7.824;2022-08-21T08:09:55;8.43;;;4.30;;
48871;SDS011;36154;51.674;7.824;2022-08-21T08:12:21;6.65;;;3.38;;
48871;SDS011;36154;51.674;7.824;2022-08-21T08:14:46;9.90;;;4.07;;
48871;SDS011;36154;51.674;7.824;2022-08-21T08:17:11;11.15;;;3.50;;
48871;SDS011;36154;51.674;7.824;2022-08-21T08:19:38;10.07;;;3.55;;
48871;SDS011;36154;51.674;7.824;2022-08-21T08:22:11;10.07;;;3.42;;
48871;SDS011;36154;51.674;7.824;2022-08-21T08:24:39;11.57;;;3.33;;
48871;SDS011;36154;51.674;7.824;2022-08-21T08:27:04;13.10;;;3.95;;
48871;SDS011;36154;51.674;7.824;2022-08-21T08:29:30;11.57;;;4.25;;
48871;SDS011;36154;51.674;7.824;2022-08-21T08:31:55;8.45;;;4.47;;
48871;SDS011;36154;51.674;7.824;2022-08-21T08:34:22;13.25;;;4.80;;
48871;SDS011;36154;51.674;7.824;2022-08-21T08:36:48;9.18;;;4.00;;
48871;SDS011;36154;51.674;7.824;2022-08-21T08:39:13;7.95;;;4.25;;
48871;SDS011;36154;51.674;7.824;2022-08-21T08:41:38;9.48;;;4.28;;
48871;SDS011;36154;51.674;7.824;2022-08-21T08:44:05;9.45;;;4.10;;
48871;SDS011;36154;51.674;7.824;2022-08-21T08:46:36;10.50;;;5.22;;
48871;SDS011;36154;51.674;7.824;2022-08-21T08:51:51;11.88;;;3.92;;
48871;SDS011;36154;51.674;7.824;2022-08-21T08:57:31;9.65;;;4.10;;
48871;SDS011;36154;51.674;7.824;2022-08-21T08:59:58;12.10;;;3.95;;
48871;SDS011;36154;51.674;7.824;2022-08-21T09:02:25;9.32;;;3.47;;
48871;SDS011;36154;51.674;7.824;2022-08-21T09:04:54;8.63;;;3.60;;
48871;SDS011;36154;51.674;7.824;2022-08-21T09:10:18;4.38;;;2.47;;
48871;SDS011;36154;51.674;7.824;2022-08-21T09:12:56;8.23;;;2.70;;
48871;SDS011;36154;51.674;7.824;2022-08-21T09:21:14;9.15;;;2.83;;
48871;SDS011;36154;51.674;7.824;2022-08-21T09:26:28;7.88;;;1.92;;
48871;SDS011;36154;51.674;7.824;2022-08-21T09:28:59;7.47;;;1.65;;
48871;SDS011;36154;51.674;7.824;2022-08-21T09:31:30;5.38;;;1.85;;
48871;SDS011;36154;51.674;7.824;2022-08-21T09:34:01;3.80;;;1.92;;
48871;SDS011;36154;51.674;7.824;2022-08-21T09:36:35;6.13;;;1.63;;
48871;SDS011;36154;51.674;7.824;2022-08-21T09:39:04;5.72;;;1.60;;
48871;SDS011;36154;51.674;7.824;2022-08-21T09:41:32;7.00;;;1.80;;
48871;SDS011;36154;51.674;7.824;2022-08-21T09:44:00;2.58;;;1.38;;
48871;SDS011;36154;51.674;7.824;2022-08-21T09:46:27;5.60;;;1.77;;
48871;SDS011;36154;51.674;7.824;2022-08-21T09:48:57;3.70;;;1.90;;
48871;SDS011;36154;51.674;7.824;2022-08-21T09:51:26;4.40;;;1.70;;
48871;SDS011;36154;51.674;7.824;2022-08-21T09:53:55;7.32;;;1.77;;
48871;SDS011;36154;51.674;7.824;2022-08-21T09:56:35;1.92;;;1.20;;
48871;SDS011;36154;51.674;7.824;2022-08-21T09:59:31;6.03;;;1.80;;
48871;SDS011;36154;51.674;7.824;2022-08-21T10:02:00;2.92;;;1.48;;
48871;SDS011;36154;51.674;7.824;2022-08-21T10:04:29;3.75;;;1.70;;
48871;SDS011;36154;51.674;7.824;2022-08-21T10:07:05;2.83;;;1.67;;
48871;SDS011;36154;51.674;7.824;2022-08-21T10:09:35;4.00;;;1.80;;
48871;SDS011;36154;51.674;7.824;2022-08-21T10:25:58;3.38;;;1.50;;
48871;SDS011;36154;51.674;7.824;2022-08-21T10:28:42;3.28;;;1.60;;
48871;SDS011;36154;51.674;7.824;2022-08-21T10:37:11;5.60;;;1.38;;
48871;SDS011;36154;51.674;7.824;2022-08-21T10:40:13;4.97;;;1.70;;
48871;SDS011;36154;51.674;7.824;2022-08-21T10:47:57;2.13;;;1.45;;
48871;SDS011;36154;51.674;7.824;2022-08-21T10:55:57;33.85;;;5.10;;
48871;SDS011;36154;51.674;7.824;2022-08-21T10:58:31;21.48;;;3.47;;
48871;SDS011;36154;51.674;7.824;2022-08-21T11:01:12;23.27;;;4.43;;
48871;SDS011;36154;51.674;7.824;2022-08-21T11:03:44;20.77;;;3.72;;
48871;SDS011;36154;51.674;7.824;2022-08-21T11:06:20;18.63;;;3.40;;
48871;SDS011;36154;51.674;7.824;2022-08-21T11:08:53;11.15;;;2.45;;
48871;SDS011;36154;51.674;7.824;2022-08-21T11:11:29;8.27;;;2.72;;
48871;SDS011;36154;51.674;7.824;2022-08-21T11:16:59;5.70;;;1.92;;
48871;SDS011;36154;51.674;7.824;2022-08-21T11:19:48;4.30;;;1.60;;
48871;SDS011;36154;51.674;7.824;2022-08-21T11:22:38;4.55;;;1.50;;
48871;SDS011;36154;51.674;7.824;2022-08-21T11:25:14;2.85;;;1.33;;
48871;SDS011;36154;51.674;7.824;2022-08-21T11:27:58;4.10;;;1.63;;
48871;SDS011;36154;51.674;7.824;2022-08-21T11:30:30;3.15;;;1.00;;
48871;SDS011;36154;51.674;7.824;2022-08-21T11:35:51;1.60;;;0.90;;
48871;SDS011;36154;51.674;7.824;2022-08-21T11:38:42;3.40;;;0.88;;
48871;SDS011;36154;51.674;7.824;2022-08-21T11:41:31;1.55;;;0.73;;
48871;SDS011;36154;51.674;7.824;2022-08-21T11:47:00;1.58;;;0.60;;
48871;SDS011;36154;51.674;7.824;2022-08-21T11:52:18;1.08;;;0.70;;
48871;SDS011;36154;51.674;7.824;2022-08-21T11:57:20;1.42;;;0.50;;
48871;SDS011;36154;51.674;7.824;2022-08-21T11:59:58;1.80;;;0.60;;
48871;SDS011;36154;51.674;7.824;2022-08-21T12:02:28;0.90;;;0.45;;
48871;SDS011;36154;51.674;7.824;2022-08-21T12:04:59;1.10;;;0.60;;
48871;SDS011;36154;51.674;7.824;2022-08-21T12:07:33;2.30;;;0.63;;
48871;SDS011;36154;51.674;7.824;2022-08-21T12:10:05;1.15;;;0.70;;
48871;SDS011;36154;51.674;7.824;2022-08-21T12:12:35;0.68;;;0.63;;
48871;SDS011;36154;51.674;7.824;2022-08-21T12:17:37;0.95;;;0.68;;
48871;SDS011;36154;51.674;7.824;2022-08-21T12:20:25;0.90;;;0.50;;
48871;SDS011;36154;51.674;7.824;2022-08-21T12:23:01;0.50;;;0.30;;
48871;SDS011;36154;51.674;7.824;2022-08-21T12:28:34;1.05;;;0.50;;
48871;SDS011;36154;51.674;7.824;2022-08-21T12:30:59;2.15;;;0.70;;
48871;SDS011;36154;51.674;7.824;2022-08-21T12:33:30;1.50;;;0.50;;
48871;SDS011;36154;51.674;7.824;2022-08-21T12:36:03;1.33;;;0.50;;
48871;SDS011;36154;51.674;7.824;2022-08-21T12:38:47;1.90;;;0.55;;
48871;SDS011;36154;51.674;7.824;2022-08-21T12:41:44;0.85;;;0.50;;
48871;SDS011;36154;51.674;7.824;2022-08-21T12:44:14;1.70;;;0.75;;
48871;SDS011;36154;51.674;7.824;2022-08-21T12:46:45;1.00;;;0.60;;
48871;SDS011;36154;51.674;7.824;2022-08-21T12:49:17;3.22;;;1.00;;
48871;SDS011;36154;51.674;7.824;2022-08-21T12:52:00;0.80;;;0.63;;
48871;SDS011;36154;51.674;7.824;2022-08-21T12:54:31;0.70;;;0.50;;
48871;SDS011;36154;51.674;7.824;2022-08-21T12:57:04;0.73;;;0.60;;
48871;SDS011;36154;51.674;7.824;2022-08-21T12:59:31;2.10;;;0.70;;
48871;SDS011;36154;51.674;7.824;2022-08-21T13:02:01;3.38;;;0.85;;
48871;SDS011;36154;51.674;7.824;2022-08-21T13:04:36;1.42;;;0.60;;
48871;SDS011;36154;51.674;7.824;2022-08-21T13:07:09;1.23;;;0.50;;
48871;SDS011;36154;51.674;7.824;2022-08-21T13:09:52;1.58;;;0.68;;
48871;SDS011;36154;51.674;7.824;2022-08-21T13:12:21;0.90;;;0.50;;
48871;SDS011;36154;51.674;7.824;2022-08-21T13:14:48;5.60;;;0.88;;
48871;SDS011;36154;51.674;7.824;2022-08-21T13:17:17;4.75;;;0.88;;
48871;SDS011;36154;51.674;7.824;2022-08-21T13:19:58;2.80;;;0.60;;
48871;SDS011;36154;51.674;7.824;2022-08-21T13:22:26;2.30;;;0.50;;
48871;SDS011;36154;51.674;7.824;2022-08-21T13:24:52;1.13;;;0.63;;
48871;SDS011;36154;51.674;7.824;2022-08-21T13:27:20;1.70;;;0.55;;
48871;SDS011;36154;51.674;7.824;2022-08-21T13:29:47;1.42;;;0.60;;
48871;SDS011;36154;51.674;7.824;2022-08-21T13:32:17;1.88;;;0.70;;
48871;SDS011;36154;51.674;7.824;2022-08-21T13:34:46;0.57;;;0.35;;
48871;SDS011;36154;51.674;7.824;2022-08-21T13:37:12;1.05;;;0.68;;
48871;SDS011;36154;51.674;7.824;2022-08-21T13:39:39;1.00;;;0.80;;
48871;SDS011;36154;51.674;7.824;2022-08-21T13:42:08;1.95;;;0.63;;
48871;SDS011;36154;51.674;7.824;2022-08-21T13:44:43;1.65;;;0.47;;
48871;SDS011;36154;51.674;7.824;2022-08-21T13:47:10;1.48;;;0.70;;
48871;SDS011;36154;51.674;7.824;2022-08-21T13:49:40;2.90;;;0.60;;
48871;SDS011;36154;51.674;7.824;2022-08-21T13:52:15;1.88;;;0.52;;
48871;SDS011;36154;51.674;7.824;2022-08-21T13:54:55;1.58;;;0.80;;
48871;SDS011;36154;51.674;7.824;2022-08-21T13:57:37;1.60;;;0.80;;
48871;SDS011;36154;51.674;7.824;2022-08-21T14:00:13;1.88;;;0.73;;
48871;SDS011;36154;51.674;7.824;2022-08-21T14:02:43;1.80;;;0.63;;
48871;SDS011;36154;51.674;7.824;2022-08-21T14:08:14;0.90;;;0.68;;
48871;SDS011;36154;51.674;7.824;2022-08-21T14:10:51;1.60;;;0.70;;
48871;SDS011;36154;51.674;7.824;2022-08-21T14:16:19;1.42;;;0.73;;
48871;SDS011;36154;51.674;7.824;2022-08-21T14:18:47;0.82;;;0.52;;
48871;SDS011;36154;51.674;7.824;2022-08-21T14:21:14;2.72;;;0.60;;
48871;SDS011;36154;51.674;7.824;2022-08-21T14:23:59;2.47;;;0.43;;
48871;SDS011;36154;51.674;7.824;2022-08-21T14:26:34;0.75;;;0.40;;
48871;SDS011;36154;51.674;7.824;2022-08-21T14:29:01;0.93;;;0.68;;
48871;SDS011;36154;51.674;7.824;2022-08-21T14:31:32;1.02;;;0.55;;
48871;SDS011;36154;51.674;7.824;2022-08-21T14:33:59;2.03;;;0.60;;
48871;SDS011;36154;51.674;7.824;2022-08-21T14:36:25;0.68;;;0.50;;
48871;SDS011;36154;51.674;7.824;2022-08-21T14:38:50;1.30;;;0.63;;
48871;SDS011;36154;51.674;7.824;2022-08-21T14:41:19;0.85;;;0.50;;
48871;SDS011;36154;51.674;7.824;2022-08-21T14:43:47;1.38;;;0.65;;
48871;SDS011;36154;51.674;7.824;2022-08-21T14:46:15;0.75;;;0.52;;
48871;SDS011;36154;51.674;7.824;2022-08-21T14:48:45;1.73;;;0.40;;
48871;SDS011;36154;51.674;7.824;2022-08-21T14:51:11;1.58;;;0.60;;
48871;SDS011;36154;51.674;7.824;2022-08-21T14:53:37;1.48;;;0.70;;
48871;SDS011;36154;51.674;7.824;2022-08-21T14:56:03;1.33;;;0.50;;
48871;SDS011;36154;51.674;7.824;2022-08-21T14:58:32;1.42;;;0.52;;
48871;SDS011;36154;51.674;7.824;2022-08-21T15:00:59;0.50;;;0.50;;
48871;SDS011;36154;51.674;7.824;2022-08-21T15:03:28;1.00;;;0.50;;
48871;SDS011;36154;51.674;7.824;2022-08-21T15:05:54;2.78;;;0.90;;
48871;SDS011;36154;51.674;7.824;2022-08-21T15:08:19;2.33;;;0.52;;
48871;SDS011;36154;51.674;7.824;2022-08-21T15:10:44;0.57;;;0.50;;
48871;SDS011;36154;51.674;7.824;2022-08-21T15:13:10;1.38;;;0.50;;
48871;SDS011;36154;51.674;7.824;2022-08-21T15:15:38;0.70;;;0.50;;
48871;SDS011;36154;51.674;7.824;2022-08-21T15:18:06;2.80;;;0.50;;
48871;SDS011;36154;51.674;7.824;2022-08-21T15:20:31;1.75;;;0.50;;
48871;SDS011;36154;51.674;7.824;2022-08-21T15:22:57;1.02;;;0.50;;
48871;SDS011;36154;51.674;7.824;2022-08-21T15:25:22;0.60;;;0.50;;
48871;SDS011;36154;51.674;7.824;2022-08-21T15:27:48;0.55;;;0.40;;
48871;SDS011;36154;51.674;7.824;2022-08-21T15:30:13;0.50;;;0.40;;
48871;SDS011;36154;51.674;7.824;2022-08-21T15:32:39;1.02;;;0.60;;
48871;SDS011;36154;51.674;7.824;2022-08-21T15:35:07;1.45;;;0.47;;
48871;SDS011;36154;51.674;7.824;2022-08-21T15:37:33;0.90;;;0.47;;
48871;SDS011;36154;51.674;7.824;2022-08-21T15:39:59;1.42;;;0.30;;
48871;SDS011;36154;51.674;7.824;2022-08-21T15:42:24;0.80;;;0.40;;
48871;SDS011;36154;51.674;7.824;2022-08-21T15:44:54;0.73;;;0.40;;
48871;SDS011;36154;51.674;7.824;2022-08-21T15:47:22;0.85;;;0.60;;
48871;SDS011;36154;51.674;7.824;2022-08-21T15:49:52;0.65;;;0.60;;
48871;SDS011;36154;51.674;7.824;2022-08-21T15:52:19;0.65;;;0.65;;
48871;SDS011;36154;51.674;7.824;2022-08-21T15:54:46;1.65;;;0.77;;
48871;SDS011;36154;51.674;7.824;2022-08-21T15:57:13;1.23;;;0.50;;
48871;SDS011;36154;51.674;7.824;2022-08-21T15:59:41;2.10;;;0.60;;
48871;SDS011;36154;51.674;7.824;2022-08-21T16:02:19;0.50;;;0.43;;
48871;SDS011;36154;51.674;7.824;2022-08-21T16:04:48;0.55;;;0.55;;
48871;SDS011;36154;51.674;7.824;2022-08-21T16:07:14;2.42;;;0.57;;